Adrian, Missouri
Current Conditions -  °F | °C
As of 4:35 AM on Saturday 22 Nov 2014 (Local Time) from KGLY Reporting Station
Overcast Overcast  
Wind Chill: 11°   Ceiling: 2100
Heat Index: 11°   Visibility: 10mi
Dew Point:   Wind: 13mph
Humidity: 88%   Direction: 180°S
Pressure: 30.05"   Gusts: NA
Location:  38.4°N, 94.35°W
Report Text: KGLY 221035Z AUTO 18011KT 10SM OVC021 11/09 A3005 RMK AO2
Loading
Personal Weather Stations






























Interactive Weather Map New forecast layout! Learn more

10-Day Weather Forecast

Advertisements
Track Severe Weather on mobile